Time;durP1;ratioP1;P1;durP2;ratioP2;P2;SDS_P1;SDS_P2;PMS_P1;PMS_P2;Temp;Humidity;BMP_temperature;BMP_pressure;BME280_temperature;BME280_humidity;BME280_pressure;Samples;Min_cycle;Max_cycle;Signal;HPM_P1;HPM_P2
2022/01/31 00:00:09;;;;;;;;;13.25;11.00;;;;;8.47;56.84;101656.22;5042893;28;45499;-79
2022/01/31 00:02:35;;;;;;;;;14.50;13.25;;;;;8.53;57.20;101683.53;5038890;28;45409;-80
2022/01/31 00:05:02;;;;;;;;;10.25;9.00;;;;;8.38;57.19;101645.44;5038990;28;45544;-83
2022/01/31 00:07:28;;;;;;;;;12.25;9.00;;;;;8.52;57.56;101658.13;5038658;28;45336;-82
2022/01/31 00:09:53;;;;;;;;;12.75;7.00;;;;;8.54;57.37;101658.19;5039503;28;45220;-80
2022/01/31 00:12:20;;;;;;;;;9.75;7.75;;;;;8.46;57.17;101636.94;5039075;28;45546;-81
2022/01/31 00:14:49;;;;;;;;;9.25;7.75;;;;;8.45;57.34;101618.50;5039697;28;45222;-82
2022/01/31 00:17:16;;;;;;;;;6.25;5.50;;;;;8.52;57.60;101620.47;5038828;28;47053;-80
2022/01/31 00:19:42;;;;;;;;;9.50;8.50;;;;;8.51;57.79;101629.22;5024171;28;45477;-82
2022/01/31 00:22:13;;;;;;;;;6.00;6.00;;;;;8.43;57.98;101617.59;5020461;28;45223;-80
2022/01/31 00:24:38;;;;;;;;;5.25;4.00;;;;;8.16;58.26;101579.09;5032573;28;45335;-81
2022/01/31 00:27:06;;;;;;;;;7.75;7.75;;;;;8.37;58.13;101612.13;5039907;28;45974;-81
2022/01/31 00:29:31;;;;;;;;;9.00;8.00;;;;;8.25;58.88;101596.88;5039730;28;45252;-81
2022/01/31 00:31:57;;;;;;;;;9.50;8.00;;;;;8.25;58.83;101599.50;5039430;28;45706;-81
2022/01/31 00:34:23;;;;;;;;;9.25;8.25;;;;;8.20;59.40;101602.00;5039778;28;45277;-83
2022/01/31 00:36:48;;;;;;;;;8.25;8.25;;;;;8.14;59.41;101590.41;5039092;28;46062;-82
2022/01/31 00:39:14;;;;;;;;;11.25;7.50;;;;;8.06;59.31;101579.66;5038940;28;45161;-82
2022/01/31 00:41:39;;;;;;;;;8.00;8.00;;;;;8.05;59.99;101595.38;5040748;28;45308;-82
2022/01/31 00:46:43;;;;;;;;;8.00;8.00;;;;;8.15;59.41;101613.19;5038949;28;45971;-80
2022/01/31 00:49:16;;;;;;;;;10.75;8.25;;;;;8.15;59.39;101600.94;5038732;28;45407;-82
2022/01/31 00:51:42;;;;;;;;;8.00;6.00;;;;;8.24;59.78;101605.59;5038786;28;45407;-83
2022/01/31 00:54:07;;;;;;;;;4.25;4.25;;;;;8.13;59.51;101579.03;5021291;28;45596;-82
2022/01/31 00:56:32;;;;;;;;;7.50;7.00;;;;;8.19;59.30;101591.44;5038863;28;45964;-82
2022/01/31 00:58:58;;;;;;;;;8.50;3.75;;;;;8.24;58.73;101589.84;5020943;28;45434;-82
2022/01/31 01:01:23;;;;;;;;;7.50;7.50;;;;;8.18;58.92;101566.91;5038634;28;45312;-82
2022/01/31 01:03:49;;;;;;;;;8.50;8.00;;;;;8.33;59.04;101573.50;5037872;28;45478;-81
2022/01/31 01:06:14;;;;;;;;;6.75;4.00;;;;;8.42;58.76;101555.41;5038960;28;45384;-81
2022/01/31 01:08:39;;;;;;;;;4.75;4.75;;;;;8.27;58.55;101535.69;5038604;28;45292;-82
2022/01/31 01:11:05;;;;;;;;;3.00;3.00;;;;;8.26;58.72;101530.41;5039104;28;45508;-81
2022/01/31 01:13:30;;;;;;;;;8.75;7.00;;;;;8.19;58.55;101531.97;5038505;28;45407;-81
2022/01/31 01:15:56;;;;;;;;;6.25;3.00;;;;;8.31;58.66;101565.56;5037338;28;45391;-81
2022/01/31 01:18:22;;;;;;;;;5.75;5.75;;;;;8.29;58.74;101548.88;5041321;28;45218;-83
2022/01/31 01:20:47;;;;;;;;;6.75;3.00;;;;;8.29;58.72;101534.03;5039644;28;45475;-83
2022/01/31 01:23:13;;;;;;;;;5.50;3.00;;;;;8.19;58.94;101520.56;5038626;28;45214;-81
2022/01/31 01:25:38;;;;;;;;;9.25;4.00;;;;;8.33;59.49;101545.50;5038218;28;46147;-82
2022/01/31 01:28:04;;;;;;;;;3.25;3.25;;;;;8.31;59.56;101527.94;5038313;28;45374;-81
2022/01/31 01:30:29;;;;;;;;;3.00;2.25;;;;;8.27;59.58;101505.94;5038624;28;45181;-83
2022/01/31 01:35:26;;;;;;;;;3.75;3.25;;;;;8.28;60.32;101485.00;5038030;28;46129;-80
2022/01/31 01:37:51;;;;;;;;;5.50;2.50;;;;;8.34;59.88;101483.38;5038206;28;45214;-82
2022/01/31 01:40:17;;;;;;;;;2.50;2.50;;;;;8.32;60.36;101466.72;5029853;28;45494;-79
2022/01/31 01:42:42;;;;;;;;;8.50;5.50;;;;;8.33;60.42;101474.63;5038402;28;45276;-82
2022/01/31 01:45:08;;;;;;;;;8.25;6.00;;;;;8.30;60.33;101466.66;5037852;28;46261;-82
2022/01/31 01:47:34;;;;;;;;;7.00;4.00;;;;;8.08;60.89;101431.03;5037338;28;45387;-82
2022/01/31 01:50:00;;;;;;;;;3.25;3.25;;;;;8.17;60.75;101443.53;5038047;28;45286;-81
2022/01/31 01:52:26;;;;;;;;;7.00;3.75;;;;;8.09;60.73;101443.31;5020838;28;45237;-82
2022/01/31 01:54:52;;;;;;;;;3.00;3.00;;;;;8.14;61.42;101451.31;5040659;28;45417;-81
2022/01/31 01:57:20;;;;;;;;;6.75;4.75;;;;;8.22;61.01;101452.44;5038032;28;45312;-82
2022/01/31 01:59:46;;;;;;;;;4.00;3.00;;;;;8.29;61.47;101468.41;5033709;28;45262;-83
2022/01/31 02:02:13;;;;;;;;;4.50;4.50;;;;;8.35;61.46;101472.06;5018048;28;45376;-81
2022/01/31 02:04:41;;;;;;;;;3.75;3.75;;;;;8.41;61.07;101470.50;5017565;28;46211;-83
2022/01/31 02:07:08;;;;;;;;;5.75;2.00;;;;;8.45;61.36;101474.09;5017678;28;45324;-82
2022/01/31 02:09:41;;;;;;;;;6.00;3.50;;;;;8.36;61.72;101443.22;5034605;28;45481;-81
2022/01/31 02:12:07;;;;;;;;;5.75;3.25;;;;;8.48;62.02;101461.97;5037994;28;45400;-82
2022/01/31 02:14:34;;;;;;;;;4.00;4.00;;;;;8.50;62.31;101460.25;5036181;28;45482;-80
2022/01/31 02:16:59;;;;;;;;;3.25;2.50;;;;;8.51;62.47;101455.91;5037728;28;45407;-80
2022/01/31 02:19:25;;;;;;;;;7.25;3.25;;;;;8.52;62.01;101428.78;5040454;28;45439;-81
2022/01/31 02:21:53;;;;;;;;;5.50;3.75;;;;;8.37;62.01;101415.22;5040924;28;45743;-81
2022/01/31 02:24:19;;;;;;;;;1.50;1.50;;;;;8.28;63.53;101400.09;5037641;28;46107;-81
2022/01/31 02:26:44;;;;;;;;;4.50;2.50;;;;;8.41;63.82;101428.50;5037196;28;45321;-82
2022/01/31 02:29:13;;;;;;;;;1.50;1.50;;;;;8.43;63.19;101424.19;5037071;28;45290;-82
2022/01/31 02:31:46;;;;;;;;;3.75;2.75;;;;;8.29;63.78;101388.78;5037546;28;45478;-80
2022/01/31 02:34:13;;;;;;;;;6.00;2.25;;;;;8.21;64.90;101367.56;5037340;28;45500;-80
2022/01/31 02:36:38;;;;;;;;;2.75;2.75;;;;;8.40;64.84;101389.97;5037685;28;45280;-77
2022/01/31 02:39:05;;;;;;;;;6.50;2.25;;;;;8.35;65.22;101378.44;5037124;28;45311;-78
2022/01/31 02:41:31;;;;;;;;;2.00;2.00;;;;;8.33;65.56;101374.88;5037428;28;45335;-78
2022/01/31 02:43:57;;;;;;;;;2.75;2.25;;;;;8.47;65.73;101401.53;5037272;28;45201;-80
2022/01/31 02:46:25;;;;;;;;;9.50;4.00;;;;;8.51;65.40;101395.50;5036319;28;45427;-80
2022/01/31 02:48:52;;;;;;;;;4.75;1.25;;;;;8.52;65.70;101385.03;5037198;28;45316;-78
2022/01/31 02:51:24;;;;;;;;;4.50;2.25;;;;;8.40;65.40;101341.84;5037521;28;45331;-79
2022/01/31 02:53:49;;;;;;;;;4.00;1.75;;;;;8.48;65.34;101351.69;5036459;28;46463;-81
2022/01/31 02:56:15;;;;;;;;;6.50;2.75;;;;;8.49;65.46;101347.31;5021684;28;45217;-80
2022/01/31 02:58:40;;;;;;;;;5.50;4.00;;;;;8.61;66.10;101362.50;5037605;28;45177;-81
2022/01/31 03:01:06;;;;;;;;;3.25;3.00;;;;;8.62;66.22;101364.25;5020122;28;45477;-79
2022/01/31 03:03:31;;;;;;;;;1.00;1.00;;;;;8.62;66.16;101362.53;5016496;28;46134;-80
2022/01/31 03:05:57;;;;;;;;;7.75;2.75;;;;;8.60;66.08;101353.72;5017102;28;45352;-79
2022/01/31 03:08:24;;;;;;;;;3.50;2.75;;;;;8.59;65.89;101332.69;4999291;28;45427;-79
2022/01/31 03:10:49;;;;;;;;;2.00;2.00;;;;;8.65;66.85;101333.69;5026174;28;45588;-79
2022/01/31 03:13:15;;;;;;;;;2.00;2.00;;;;;8.69;66.46;101335.56;5036774;28;45595;-78
2022/01/31 03:15:40;;;;;;;;;4.00;2.25;;;;;8.68;67.03;101323.28;5036717;28;45323;-79
2022/01/31 03:18:06;;;;;;;;;5.75;3.00;;;;;8.61;67.65;101336.22;5036623;28;45612;-81
2022/01/31 03:20:32;;;;;;;;;3.75;3.75;;;;;8.65;67.99;101336.31;5037032;28;45261;-80
2022/01/31 03:22:58;;;;;;;;;2.25;2.00;;;;;8.59;68.69;101312.56;5036738;28;45329;-79
2022/01/31 03:25:23;;;;;;;;;1.00;1.00;;;;;8.48;68.99;101300.91;5037175;28;45249;-78
2022/01/31 03:27:50;;;;;;;;;2.00;2.00;;;;;8.57;69.29;101332.66;5036954;28;45193;-79
2022/01/31 03:30:21;;;;;;;;;2.75;2.25;;;;;8.56;69.73;101315.09;5037272;28;45239;-76
2022/01/31 03:32:47;;;;;;;;;8.00;4.00;;;;;8.63;68.70;101329.28;5036716;28;45363;-77
2022/01/31 03:35:13;;;;;;;;;2.50;1.50;;;;;8.65;69.84;101331.06;5028902;28;45404;-80
2022/01/31 03:37:39;;;;;;;;;2.00;1.75;;;;;8.69;69.03;101332.06;5017985;28;45287;-81
2022/01/31 03:40:07;;;;;;;;;5.25;2.00;;;;;8.66;70.01;101309.25;5040562;28;45204;-82
2022/01/31 03:42:33;;;;;;;;;2.00;2.00;;;;;8.72;69.76;101312.00;5039948;28;46250;-81
2022/01/31 03:44:58;;;;;;;;;2.75;1.00;;;;;8.73;70.78;101290.13;5039543;28;45454;-81
2022/01/31 03:47:24;;;;;;;;;0.00;0.00;;;;;8.75;71.13;101282.31;5040152;28;45345;-82
2022/01/31 03:49:51;;;;;;;;;6.50;3.00;;;;;8.71;71.92;101283.06;5040449;28;45394;-81
2022/01/31 03:52:17;;;;;;;;;4.75;2.75;;;;;8.82;71.81;101289.47;5040327;28;45430;-81
2022/01/31 03:54:43;;;;;;;;;0.50;0.50;;;;;8.74;72.97;101276.13;5040860;28;45312;-82
2022/01/31 03:57:09;;;;;;;;;0.50;0.00;;;;;8.78;73.64;101264.88;5040297;28;45400;-82
2022/01/31 03:59:35;;;;;;;;;1.25;1.25;;;;;8.73;74.23;101278.72;5039494;28;45312;-82
2022/01/31 04:02:03;;;;;;;;;2.00;2.00;;;;;8.68;75.27;101293.50;5039968;28;46678;-82
2022/01/31 04:04:28;;;;;;;;;1.25;1.25;;;;;8.74;74.91;101301.53;5039417;28;45423;-82
2022/01/31 04:06:54;;;;;;;;;2.25;2.25;;;;;8.68;76.29;101294.41;5041491;28;45311;-81
2022/01/31 04:09:19;;;;;;;;;3.75;3.00;;;;;8.64;76.12;101300.41;5039935;28;45476;-82
2022/01/31 04:11:45;;;;;;;;;2.00;1.00;;;;;8.69;74.55;101305.78;5039460;28;45437;-79
2022/01/31 04:14:11;;;;;;;;;2.00;0.00;;;;;8.66;75.56;101306.63;5039148;28;45334;-81
2022/01/31 04:16:36;;;;;;;;;2.00;2.00;;;;;8.64;75.35;101313.53;5039464;28;45242;-79
2022/01/31 04:19:02;;;;;;;;;1.75;1.75;;;;;8.51;76.25;101275.59;5039344;28;45411;-81
2022/01/31 04:21:28;;;;;;;;;1.25;1.25;;;;;8.66;75.14;101304.00;5039198;28;47490;-82
2022/01/31 04:23:54;;;;;;;;;1.25;0.75;;;;;8.68;76.10;101314.53;5021338;28;45233;-80
2022/01/31 04:26:20;;;;;;;;;1.00;1.00;;;;;8.60;76.01;101295.94;5039310;28;45280;-82
2022/01/31 04:28:49;;;;;;;;;1.25;1.25;;;;;8.68;75.69;101314.53;5039277;28;45534;-82
2022/01/31 04:33:49;;;;;;;;;3.00;1.00;;;;;8.77;75.63;101309.50;5038933;28;45478;-80
2022/01/31 04:36:15;;;;;;;;;1.75;0.50;;;;;8.69;75.60;101303.16;5021805;28;45392;-80
2022/01/31 04:38:41;;;;;;;;;1.00;1.00;;;;;8.74;75.94;101312.91;5039030;28;45315;-81
2022/01/31 04:41:07;;;;;;;;;2.00;2.00;;;;;8.81;75.78;101324.47;5020874;28;46989;-82
2022/01/31 04:43:33;;;;;;;;;0.50;0.50;;;;;8.69;75.15;101290.91;5039314;28;45186;-81
2022/01/31 04:46:01;;;;;;;;;1.00;0.50;;;;;8.81;76.06;101314.84;5039020;28;45360;-81
2022/01/31 04:48:26;;;;;;;;;2.00;2.00;;;;;8.81;75.97;101306.97;5038290;28;45506;-81
2022/01/31 04:50:52;;;;;;;;;1.00;1.00;;;;;8.57;76.50;101264.38;5038676;28;45710;-80
2022/01/31 04:53:17;;;;;;;;;1.00;1.00;;;;;8.84;75.31;101308.75;5039097;28;45273;-82
2022/01/31 04:55:43;;;;;;;;;1.25;1.00;;;;;8.83;75.53;101288.59;5038876;28;45273;-82
2022/01/31 04:58:09;;;;;;;;;1.25;1.00;;;;;8.91;75.68;101297.56;5039210;28;45308;-81
2022/01/31 05:00:34;;;;;;;;;2.50;2.00;;;;;8.72;75.35;101275.22;5038421;28;47324;-82
2022/01/31 05:03:01;;;;;;;;;3.00;1.00;;;;;8.97;75.19;101308.22;5038379;28;45344;-81
2022/01/31 05:05:26;;;;;;;;;1.00;1.00;;;;;8.87;75.03;101289.59;5038762;28;45319;-80
2022/01/31 05:07:54;;;;;;;;;0.00;0.00;;;;;8.86;74.05;101286.06;5039084;28;45296;-82
2022/01/31 05:10:19;;;;;;;;;2.50;1.25;;;;;8.70;73.49;101250.66;5038088;28;45431;-80
2022/01/31 05:12:45;;;;;;;;;0.75;0.75;;;;;8.91;73.46;101283.53;5000788;28;45283;-80
2022/01/31 05:15:11;;;;;;;;;2.00;2.00;;;;;9.01;72.64;101314.41;5018689;28;45274;-83
2022/01/31 05:17:36;;;;;;;;;3.25;1.50;;;;;9.11;72.32;101332.16;5022084;28;45220;-83
2022/01/31 05:20:03;;;;;;;;;1.75;0.00;;;;;9.12;71.62;101328.72;5019695;28;45261;-81
2022/01/31 05:22:28;;;;;;;;;1.75;1.75;;;;;9.05;71.55;101327.69;5018838;28;45356;-79
2022/01/31 05:24:54;;;;;;;;;0.00;0.00;;;;;9.04;71.54;101333.78;5018621;28;45730;-82
2022/01/31 05:27:20;;;;;;;;;2.50;2.25;;;;;8.99;71.75;101319.63;5026245;28;45387;-83
2022/01/31 05:29:45;;;;;;;;;2.00;2.00;;;;;9.04;70.44;101336.41;5018196;28;45357;-81
2022/01/31 05:32:10;;;;;;;;;1.50;1.50;;;;;9.05;69.85;101348.69;5018267;28;45420;-79
2022/01/31 05:34:36;;;;;;;;;3.25;1.75;;;;;9.08;68.39;101343.50;5038263;28;45355;-81
2022/01/31 05:37:01;;;;;;;;;2.00;0.50;;;;;9.04;67.23;101360.06;5038421;28;45328;-83
2022/01/31 05:39:27;;;;;;;;;2.25;2.25;;;;;8.75;66.24;101308.56;5037850;28;45328;-82
2022/01/31 05:41:53;;;;;;;;;0.00;0.00;;;;;8.63;65.87;101317.03;5038192;28;45379;-82
2022/01/31 05:44:19;;;;;;;;;2.00;0.00;;;;;8.67;65.94;101318.00;5038306;28;45294;-81
2022/01/31 05:46:44;;;;;;;;;1.00;1.00;;;;;8.72;65.46;101340.88;5038322;28;45214;-82
2022/01/31 05:49:10;;;;;;;;;1.00;0.00;;;;;8.63;65.85;101313.50;5038008;28;45530;-80
2022/01/31 05:51:45;;;;;;;;;1.25;1.25;;;;;8.71;65.72;101343.47;5038209;28;45332;-81
2022/01/31 05:54:10;;;;;;;;;1.75;0.50;;;;;8.66;65.59;101348.63;5039672;28;45303;-81
2022/01/31 05:56:36;;;;;;;;;3.00;2.00;;;;;8.69;65.83;101347.81;5037910;28;45257;-80
2022/01/31 05:59:01;;;;;;;;;1.75;1.00;;;;;8.67;65.52;101345.16;5037820;28;46632;-81
2022/01/31 06:01:26;;;;;;;;;1.50;1.00;;;;;8.63;65.87;101330.16;5036353;28;45409;-82
2022/01/31 06:03:52;;;;;;;;;1.75;1.00;;;;;8.55;66.29;101313.31;5037851;28;45389;-79
2022/01/31 06:06:17;;;;;;;;;1.00;1.00;;;;;8.56;66.47;101337.00;5037554;28;45418;-80
2022/01/31 06:08:43;;;;;;;;;1.00;1.00;;;;;8.47;66.53;101343.78;5037650;28;46014;-81
2022/01/31 06:11:08;;;;;;;;;1.00;1.00;;;;;8.49;66.80;101353.47;5037583;28;45318;-82
2022/01/31 06:13:34;;;;;;;;;3.00;2.00;;;;;8.43;65.99;101347.16;5037635;28;45292;-82
2022/01/31 06:16:00;;;;;;;;;0.75;0.75;;;;;8.31;66.47;101352.94;5037505;28;45308;-81
2022/01/31 06:18:25;;;;;;;;;8.00;2.00;;;;;8.38;66.14;101356.66;5031518;28;45752;-81
2022/01/31 06:20:51;;;;;;;;;3.50;1.00;;;;;8.23;65.64;101347.50;5017568;28;45305;-81
2022/01/31 06:23:16;;;;;;;;;4.50;2.00;;;;;8.29;65.64;101367.78;5036788;28;45264;-81
2022/01/31 06:25:42;;;;;;;;;1.00;1.00;;;;;8.34;66.10;101371.38;5038053;28;45283;-79
2022/01/31 06:28:07;;;;;;;;;2.50;1.75;;;;;8.35;65.28;101364.44;5037069;28;46062;-80
2022/01/31 06:30:36;;;;;;;;;2.25;2.00;;;;;8.26;65.43;101352.81;5037681;28;45362;-80
2022/01/31 06:33:02;;;;;;;;;1.75;1.75;;;;;8.27;65.87;101367.69;5037105;28;45587;-82
2022/01/31 06:35:27;;;;;;;;;1.25;1.25;;;;;8.26;65.55;101365.94;5037303;28;45460;-80
2022/01/31 06:37:53;;;;;;;;;1.50;1.00;;;;;8.19;65.21;101357.84;5037163;28;45361;-81
2022/01/31 06:40:20;;;;;;;;;2.00;1.25;;;;;8.20;65.77;101364.91;5019172;28;45865;-82
2022/01/31 06:42:46;;;;;;;;;1.00;1.00;;;;;7.93;64.97;101317.81;5037255;28;45359;-82
2022/01/31 06:45:11;;;;;;;;;2.25;2.00;;;;;8.16;65.18;101361.28;5037116;28;45284;-82
2022/01/31 06:47:37;;;;;;;;;3.00;2.00;;;;;8.13;65.14;101371.72;5036758;28;46395;-82
2022/01/31 06:50:06;;;;;;;;;2.50;0.00;;;;;8.13;65.16;101370.81;5019134;28;45225;-80
2022/01/31 06:52:34;;;;;;;;;1.00;1.00;;;;;8.10;64.76;101379.50;5036570;28;45209;-82
2022/01/31 06:55:03;;;;;;;;;1.25;1.00;;;;;8.08;65.45;101361.91;5036993;28;45335;-82
2022/01/31 06:57:33;;;;;;;;;3.50;2.00;;;;;8.05;65.20;101361.84;5036824;28;45973;-81
2022/01/31 07:00:01;;;;;;;;;0.25;0.25;;;;;7.98;64.80;101359.03;5036705;28;45387;-82
2022/01/31 07:02:28;;;;;;;;;1.50;1.50;;;;;7.90;64.57;101343.94;5037042;28;45349;-81
2022/01/31 07:04:53;;;;;;;;;3.00;2.00;;;;;8.00;64.71;101382.69;5038541;28;45158;-78
2022/01/31 07:07:19;;;;;;;;;7.00;2.75;;;;;7.79;64.82;101351.50;5036346;28;45772;-80
2022/01/31 07:09:44;;;;;;;;;1.50;1.50;;;;;7.97;65.11;101383.50;5037122;28;45450;-81
2022/01/31 07:12:12;;;;;;;;;2.00;0.00;;;;;7.83;64.75;101363.88;5036676;28;45311;-80
2022/01/31 07:14:37;;;;;;;;;1.75;1.25;;;;;7.72;64.34;101337.34;5033469;28;45408;-81
2022/01/31 07:17:05;;;;;;;;;2.00;2.00;;;;;7.89;64.83;101371.91;5020228;28;46433;-79
2022/01/31 07:19:34;;;;;;;;;1.00;1.00;;;;;7.93;64.46;101397.41;5020670;28;45433;-81
2022/01/31 07:22:00;;;;;;;;;0.25;0.25;;;;;7.96;64.19;101405.34;5020769;28;45222;-79
2022/01/31 07:27:01;;;;;;;;;2.00;2.00;;;;;7.77;63.98;101382.06;5022268;28;45914;-81
2022/01/31 07:29:29;;;;;;;;;1.00;1.00;;;;;7.94;64.42;101408.78;5040492;28;45294;-82
2022/01/31 07:31:56;;;;;;;;;1.00;0.75;;;;;7.94;64.29;101400.91;5040747;28;45392;-82
2022/01/31 07:34:22;;;;;;;;;3.25;1.00;;;;;7.75;63.88;101368.00;5041150;28;45436;-79
2022/01/31 07:36:47;;;;;;;;;1.00;1.00;;;;;7.96;63.95;101409.69;5039626;28;46884;-79
2022/01/31 07:39:13;;;;;;;;;4.75;1.00;;;;;7.97;63.21;101404.50;5022749;28;45281;-80
2022/01/31 07:41:43;;;;;;;;;1.00;1.00;;;;;7.85;63.95;101390.16;5039798;28;45304;-80
2022/01/31 07:44:10;;;;;;;;;2.75;1.25;;;;;8.09;64.15;101422.31;5038958;28;45501;-79
2022/01/31 07:46:36;;;;;;;;;2.50;2.50;;;;;8.25;63.48;101431.50;5036916;28;45394;-82
2022/01/31 07:49:03;;;;;;;;;4.25;1.75;;;;;8.35;63.20;101430.94;5037342;28;45509;-82
2022/01/31 07:51:29;;;;;;;;;1.25;0.50;;;;;8.43;62.39;101433.78;5031075;28;45565;-82
2022/01/31 07:53:54;;;;;;;;;4.50;1.75;;;;;8.17;62.27;101377.91;5017216;28;45466;-81
2022/01/31 07:56:20;;;;;;;;;0.00;0.00;;;;;8.48;62.10;101422.56;5032608;28;45455;-85
2022/01/31 07:58:46;;;;;;;;;3.00;1.75;;;;;8.46;62.13;101432.13;5029444;28;45419;-82
2022/01/31 08:01:12;;;;;;;;;2.25;0.75;;;;;8.48;61.85;101422.56;5026344;28;45534;-82
2022/01/31 08:03:38;;;;;;;;;3.00;1.75;;;;;8.63;61.38;101453.59;5032233;28;45565;-85
2022/01/31 08:06:04;;;;;;;;;2.25;2.00;;;;;8.61;61.33;101443.91;5011761;28;47987;-85
2022/01/31 08:08:31;;;;;;;;;5.00;2.75;;;;;8.75;61.41;101455.69;5006516;28;45482;-86
2022/01/31 08:10:59;;;;;;;;;3.00;1.00;;;;;8.69;61.34;101439.75;5030626;28;45437;-91
2022/01/31 08:13:34;;;;;;;;;4.75;3.00;;;;;8.98;60.88;101465.03;5026264;28;45593;-86
2022/01/31 08:16:09;;;;;;;;;6.75;5.25;;;;;9.14;60.39;101480.34;5056337;28;45392;-85
2022/01/31 08:18:40;;;;;;;;;2.75;2.00;;;;;8.85;60.00;101402.53;5043689;28;45402;-89
2022/01/31 08:21:07;;;;;;;;;2.75;1.00;;;;;9.09;59.39;101441.63;5018247;28;45503;-87
2022/01/31 08:23:33;;;;;;;;;1.50;1.50;;;;;9.22;59.46;101456.00;5035455;28;45529;-86
2022/01/31 08:26:01;;;;;;;;;3.25;2.00;;;;;8.70;59.32;101358.34;5011492;28;48126;-85
2022/01/31 08:28:53;;;;;;;;;2.25;2.25;;;;;9.13;59.67;101417.22;5025974;28;45534;-81
2022/01/31 08:31:17;;;;;;;;;1.00;1.00;;;;;9.26;59.46;101457.81;5029392;28;45502;-85
2022/01/31 08:34:03;;;;;;;;;5.25;3.25;;;;;9.05;59.78;101431.91;5035735;28;45249;-87
2022/01/31 08:36:34;;;;;;;;;1.00;1.00;;;;;9.18;60.07;101459.38;5022258;28;47903;-84
2022/01/31 08:39:11;;;;;;;;;3.00;2.00;;;;;9.15;60.05;101460.19;5028572;28;45570;-79
2022/01/31 08:41:39;;;;;;;;;3.00;1.25;;;;;9.14;60.08;101459.31;5037442;28;45387;-82
2022/01/31 08:44:05;;;;;;;;;8.00;3.00;;;;;8.90;60.05;101405.25;5032386;28;45683;-86
2022/01/31 08:46:32;;;;;;;;;5.50;3.75;;;;;8.65;60.46;101364.34;5040161;28;45382;-88
2022/01/31 08:48:59;;;;;;;;;3.00;3.00;;;;;8.92;60.26;101414.94;5045534;28;45450;-80
2022/01/31 08:51:25;;;;;;;;;3.00;2.00;;;;;9.13;60.02;101493.44;5050737;28;45376;-81
2022/01/31 08:53:51;;;;;;;;;7.75;1.75;;;;;8.98;60.30;101472.03;5042032;28;45351;-87
2022/01/31 08:56:18;;;;;;;;;2.75;1.00;;;;;8.96;60.23;101478.97;5021193;28;47534;-85
2022/01/31 08:58:47;;;;;;;;;1.00;1.00;;;;;9.00;60.20;101475.56;5021243;28;45538;-87
2022/01/31 09:01:17;;;;;;;;;3.00;2.00;;;;;9.13;60.16;101494.34;5030472;28;45538;-87
2022/01/31 09:06:23;;;;;;;;;5.25;3.75;;;;;9.37;59.46;101487.88;5029637;28;45970;-84
2022/01/31 09:08:49;;;;;;;;;2.00;2.00;;;;;9.47;58.18;101450.44;5032884;28;45555;-87
2022/01/31 09:11:15;;;;;;;;;2.75;2.75;;;;;9.94;57.78;101483.06;5030937;28;45443;-86
2022/01/31 09:13:41;;;;;;;;;1.50;1.25;;;;;9.85;57.12;101432.88;5016923;28;45559;-89
2022/01/31 09:16:07;;;;;;;;;3.75;3.00;;;;;10.07;57.38;101439.50;5005071;28;47390;-84
2022/01/31 09:18:33;;;;;;;;;4.00;2.00;;;;;9.69;56.48;101394.84;5021798;28;45412;-82
2022/01/31 09:21:00;;;;;;;;;4.00;2.50;;;;;9.35;56.94;101329.22;5043172;28;45474;-86
2022/01/31 09:23:26;;;;;;;;;2.50;1.25;;;;;10.10;56.38;101429.03;5043087;28;45157;-86
2022/01/31 09:25:53;;;;;;;;;3.00;2.75;;;;;10.20;56.05;101407.28;5049223;28;45798;-85
2022/01/31 09:28:19;;;;;;;;;2.75;2.75;;;;;10.34;56.10;101448.84;5049103;28;45390;-84
2022/01/31 09:30:46;;;;;;;;;5.50;2.25;;;;;9.73;55.33;101377.38;5038775;28;45333;-83
2022/01/31 09:33:12;;;;;;;;;4.00;2.00;;;;;10.07;55.61;101455.28;5032320;28;45436;-82
2022/01/31 09:35:38;;;;;;;;;6.75;3.00;;;;;9.96;55.79;101462.09;5037002;28;45413;-87
2022/01/31 09:38:05;;;;;;;;;3.00;2.00;;;;;11.58;52.05;101407.00;5017508;28;45578;-81
2022/01/31 09:40:32;;;;;;;;;2.75;2.75;;;;;14.66;46.43;101451.03;5039193;28;45177;-85
2022/01/31 09:43:22;;;;;;;;;4.00;3.00;;;;;15.78;42.98;101459.88;5036719;28;45339;-82
2022/01/31 09:46:17;;;;;;;;;6.50;3.00;;;;;14.16;44.73;101435.84;5029660;28;45448;-81
2022/01/31 09:48:44;;;;;;;;;2.00;2.00;;;;;14.48;46.16;101463.34;5034514;28;45612;-82
2022/01/31 09:51:12;;;;;;;;;2.50;1.25;;;;;14.15;44.83;101472.03;5025107;28;45218;-82
2022/01/31 09:53:45;;;;;;;;;5.50;1.75;;;;;13.25;46.51;101466.19;5036608;28;45406;-86
2022/01/31 09:56:14;;;;;;;;;1.75;1.75;;;;;13.37;46.38;101458.31;5030480;28;45775;-84
2022/01/31 09:58:40;;;;;;;;;3.50;1.00;;;;;12.63;46.70;101463.78;5015038;28;45447;-80
2022/01/31 10:01:13;;;;;;;;;4.50;3.00;;;;;12.06;49.11;101467.50;5014830;28;45318;-82
2022/01/31 10:03:51;;;;;;;;;2.00;2.00;;;;;11.53;50.05;101479.91;5020981;28;45638;-85
2022/01/31 10:06:27;;;;;;;;;4.00;2.50;;;;;11.20;50.95;101472.38;4995286;28;48391;-84
2022/01/31 10:09:04;;;;;;;;;3.75;2.00;;;;;10.81;51.50;101421.63;5013214;28;45524;-84
2022/01/31 10:11:39;;;;;;;;;4.00;4.00;;;;;10.75;51.48;101486.50;5018856;28;45683;-87
2022/01/31 10:17:01;;;;;;;;;4.75;3.25;;;;;10.34;52.32;101491.88;5014799;28;45488;-85
2022/01/31 10:19:27;;;;;;;;;1.75;1.75;;;;;10.52;52.04;101507.16;5018714;28;45368;-83
2022/01/31 10:22:03;;;;;;;;;1.00;1.00;;;;;10.66;50.09;101407.28;5020445;28;45432;-85
2022/01/31 10:24:31;;;;;;;;;3.50;1.00;;;;;11.46;49.31;101423.56;5000333;28;44954;-88
2022/01/31 10:27:06;;;;;;;;;3.00;3.00;;;;;12.34;47.12;101518.06;5001258;28;46665;-84
2022/01/31 10:29:31;;;;;;;;;3.50;2.00;;;;;12.60;46.99;101474.34;5003517;28;45688;-88
2022/01/31 10:32:01;;;;;;;;;1.25;1.00;;;;;14.17;43.28;101498.53;5001292;28;45700;-84
2022/01/31 10:34:28;;;;;;;;;1.75;1.75;;;;;17.69;36.64;101488.03;5016635;28;45337;-85
2022/01/31 10:36:53;;;;;;;;;3.00;2.25;;;;;18.66;34.74;101384.59;5010658;28;47280;-84
2022/01/31 10:53:59;;;;;;;;;1.00;1.00;;;;;13.10;43.61;101513.63;4946241;28;45513;-83
2022/01/31 10:56:41;;;;;;;;;0.00;0.00;;;;;12.31;44.71;101473.13;4947622;28;45303;-85
2022/01/31 10:59:19;;;;;;;;;2.00;2.00;;;;;13.65;42.80;101528.22;4966845;28;45566;-85
2022/01/31 11:01:53;;;;;;;;;2.25;1.25;;;;;16.71;37.69;101521.59;4957493;28;45360;-82
2022/01/31 11:04:21;;;;;;;;;1.75;1.75;;;;;15.66;37.47;101436.91;4953470;28;45492;-85
2022/01/31 11:06:57;;;;;;;;;5.25;2.00;;;;;15.55;38.01;101399.72;4962815;28;45689;-82
2022/01/31 11:09:22;;;;;;;;;2.50;2.00;;;;;16.65;36.25;101478.13;4962844;28;45449;-84
2022/01/31 11:11:49;;;;;;;;;1.00;1.00;;;;;15.53;36.88;101477.59;4959651;28;45358;-81
2022/01/31 11:14:17;;;;;;;;;3.00;1.00;;;;;14.78;37.86;101433.34;4963798;28;45574;-85
2022/01/31 11:16:46;;;;;;;;;4.25;2.00;;;;;14.29;38.93;101473.84;4952059;28;45422;-85
2022/01/31 11:19:15;;;;;;;;;2.50;1.25;;;;;13.98;38.98;101464.00;4946195;28;47986;-89
2022/01/31 11:21:45;;;;;;;;;2.00;2.00;;;;;13.85;39.99;101523.06;4974875;28;45509;-86
2022/01/31 11:24:20;;;;;;;;;3.00;1.25;;;;;12.85;41.12;101401.44;4951759;28;45661;-87
2022/01/31 11:26:51;;;;;;;;;1.75;0.00;;;;;13.66;39.77;101489.41;5036500;28;45250;-84
2022/01/31 11:29:18;;;;;;;;;2.50;1.00;;;;;14.08;39.89;101496.72;5005637;28;45414;-81
2022/01/31 11:31:45;;;;;;;;;1.25;1.25;;;;;14.34;39.08;101526.03;5017342;28;45475;-89
2022/01/31 11:34:14;;;;;;;;;3.25;3.25;;;;;14.06;39.37;101518.81;4986353;28;45908;-87
2022/01/31 11:36:47;;;;;;;;;0.75;0.75;;;;;13.63;40.80;101506.16;5020055;28;45602;-93
2022/01/31 11:39:15;;;;;;;;;2.75;1.00;;;;;12.39;41.81;101423.91;5000735;28;45651;-86
2022/01/31 11:42:07;;;;;;;;;3.75;1.75;;;;;12.06;43.90;101482.47;5017226;28;45617;-90
2022/01/31 11:45:02;;;;;;;;;2.00;1.00;;;;;12.08;47.45;101559.97;5014482;28;45304;-82
2022/01/31 11:47:29;;;;;;;;;1.50;1.50;;;;;11.55;50.23;101531.88;4973223;28;45312;-83
2022/01/31 11:49:57;;;;;;;;;2.75;2.50;;;;;11.33;51.71;101540.28;4998724;28;47291;-79
2022/01/31 11:52:24;;;;;;;;;1.00;1.00;;;;;11.28;51.80;101513.84;5020721;28;45490;-84
2022/01/31 11:54:57;;;;;;;;;2.75;1.00;;;;;11.02;50.85;101468.56;4994307;28;45614;-88
2022/01/31 11:57:28;;;;;;;;;1.00;1.00;;;;;11.26;51.14;101520.84;5009555;28;45539;-83
2022/01/31 12:00:03;;;;;;;;;5.50;2.00;;;;;11.28;52.51;101576.25;4997362;28;47453;-83
2022/01/31 12:02:32;;;;;;;;;2.50;1.00;;;;;10.84;54.94;101590.38;5007662;28;45719;-84